ADDS METAR Data INFO
IDs: Format: Raw Decoded Include TAF

Data at: 1530 UTC 18 Jun 2018

KBWI 181454Z 20006KT 10SM BKN250 31/21 A3003 RMK AO2 SLP166 T03110211 58008
KBWI 181354Z 21005KT 10SM BKN250 30/21 A3003 RMK AO2 SLP169 T03000211
KBWI 181254Z 24003KT 10SM FEW160 BKN250 27/22 A3005 RMK AO2 SLP174 T02720217
KBWI 181154Z 00000KT 10SM SCT160 BKN250 25/22 A3005 RMK AO2 SLP174 T02500217 10250 20206 58002
KBWI 181054Z 00000KT 10SM FEW080 FEW160 BKN250 23/21 A3006 RMK AO2 SLP177 T02280206 $
KBWI 180954Z 00000KT 10SM FEW080 BKN250 21/20 A3006 RMK AO2 SLP178 T02110200 $
KBWI 180854Z 00000KT 10SM FEW080 BKN250 22/20 A3006 RMK AO2 SLP176 T02170200 58003 $
KBWI 180754Z 00000KT 10SM SCT049 BKN080 BKN250 23/20 A3006 RMK AO2 SLP178 T02280200 $
KBWI 180654Z COR 00000KT 10SM SCT049 BKN250 22/20 A3006 RMK AO2 SLP179 T02220200 $
KBWI 180554Z 00000KT 10SM SCT250 22/20 A3007 RMK AO2 SLP180 T02220200 10289 20222 55000 $
KBWI 180454Z 00000KT 10SM SCT250 24/20 A3007 RMK AO2 SLP179 T02390200 403220189 $
KBWI 180354Z 20004KT 10SM SCT250 25/20 A3006 RMK AO2 SLP179 T02500200 $
KBWI 180254Z 15006KT 10SM FEW130 SCT250 26/19 A3007 RMK AO2 SLP180 T02560189 51009 $
KBWI 180154Z 18003KT 10SM FEW070 SCT130 BKN250 27/19 A3006 RMK AO2 SLP176 T02670194 $
KBWI 180054Z 15003KT 10SM FEW070 SCT130 BKN250 27/19 A3005 RMK AO2 SLP175 T02720189 $
KBWI 172354Z 15004KT 10SM FEW070 BKN130 BKN250 29/19 A3004 RMK AO2 SLP171 T02890189 10322 20289 53001 $
KBWI 172254Z 15005KT 10SM FEW070 SCT130 BKN250 30/18 A3004 RMK AO2 SLP169 T03000183 $
KBWI 172154Z 12008KT 10SM FEW070 BKN250 31/18 A3003 RMK AO2 SLP169 T03110183 $
KBWI 172054Z 10007KT 10SM FEW070 BKN250 32/18 A3004 RMK AO2 SLP170 T03170183 58009 $
KBWI 171954Z 15007KT 10SM FEW070 SCT250 31/18 A3005 RMK AO2 SLP173 T03110183 $
KBWI 171854Z 18004KT 10SM FEW075 SCT250 32/18 A3005 RMK AO2 SLP175 T03170178 $
KBWI 171754Z 19005KT 10SM FEW075 BKN150 BKN200 31/18 A3006 RMK AO2 SLP179 T03110183 10311 20228 58010 $
KBWI 171654Z VRB03KT 10SM FEW070 SCT200 31/18 A3008 RMK AO2 SLP186 T03110178 $
KBWI 171554Z VRB03KT 10SM SCT200 31/18 A3009 RMK AO2 SLP187 T03060183 $
KBWI 171454Z COR 00000KT 10SM SCT065 BKN100 BKN250 28/18 A3009 RMK AO2 SLP189 53007 T02780183 $
KBWI 171354Z 01003KT 10SM SCT065 OVC090 26/19 A3010 RMK AO2 SLP190 T02610189 $
KBWI 171254Z 00000KT 10SM BKN070 BKN140 BKN250 24/19 A3009 RMK AO2 SLP187 T02440189
KBWI 171154Z 09004KT 10SM SCT070 SCT140 BKN250 23/18 A3007 RMK AO2 SLP180 T02280183 10228 20189 51014
KBWI 171054Z 10003KT 10SM FEW070 FEW095 BKN140 BKN250 22/18 A3006 RMK AO2 SLP176 ACC DSNT NW-N T02170183
KBWI 170954Z 00000KT 10SM SCT100 BKN130 BKN250 22/18 A3004 RMK AO2 SLP169 T02170178
KBWI 170854Z 00000KT 10SM SCT090 BKN130 BKN250 21/18 A3002 RMK AO2 SLP166 T02060178 56007
KBWI 170754Z 00000KT 10SM BKN090 BKN250 21/18 A3003 RMK AO2 SLP166 T02060178
KBWI 170654Z 00000KT 10SM FEW095 FEW140 BKN250 21/17 A3004 RMK AO2 SLP169 T02060172
KBWI 170554Z 00000KT 10SM FEW095 SCT140 OVC250 21/18 A3005 RMK AO2 SLP173 T02060178 10261 20200 50004
KBWI 170454Z 00000KT 10SM FEW100 OVC250 21/17 A3006 RMK AO2 SLP176 T02110172 403000133
KBWI 170354Z 00000KT 10SM FEW100 BKN250 21/17 A3005 RMK AO2 SLP174 T02110172